Time;durP1;ratioP1;P1;durP2;ratioP2;P2;SDS_P1;SDS_P2;PMS_P1;PMS_P2;Temp;Humidity;BMP_temperature;BMP_pressure;BME280_temperature;BME280_humidity;BME280_pressure;Samples;Min_cycle;Max_cycle;Signal;HPM_P1;HPM_P2
2022/11/30 00:01:12;;;;;;;34.80;17.73;;;7.50;99.90;;;;;;5140672;27;20198;-82
2022/11/30 00:03:40;;;;;;;31.63;16.75;;;7.50;99.90;;;;;;5122967;27;20273;-82
2022/11/30 00:06:12;;;;;;;37.72;15.93;;;7.50;99.90;;;;;;5141490;27;20727;-81
2022/11/30 00:08:43;;;;;;;38.92;18.67;;;7.50;99.90;;;;;;5123274;27;20178;-82
2022/11/30 00:11:12;;;;;;;40.55;19.15;;;7.60;99.90;;;;;;5121738;27;20191;-86
2022/11/30 00:13:40;;;;;;;40.72;18.05;;;7.60;99.90;;;;;;5143117;27;20282;-85
2022/11/30 00:16:09;;;;;;;34.80;16.73;;;7.50;99.90;;;;;;5125993;27;20255;-85
2022/11/30 00:18:38;;;;;;;36.13;18.30;;;7.50;99.90;;;;;;5119027;27;20197;-86
2022/11/30 00:21:08;;;;;;;41.33;18.30;;;7.50;99.90;;;;;;5126442;27;20229;-86
2022/11/30 00:23:40;;;;;;;48.03;21.58;;;7.50;99.90;;;;;;5145462;27;20202;-86
2022/11/30 00:26:10;;;;;;;39.38;19.63;;;7.40;99.90;;;;;;5153147;27;20205;-86
2022/11/30 00:28:39;;;;;;;35.80;19.95;;;7.50;99.90;;;;;;5141372;27;20185;-86
2022/11/30 00:31:11;;;;;;;36.80;20.88;;;7.40;99.90;;;;;;5128249;27;20216;-86
2022/11/30 00:33:39;;;;;;;53.08;20.15;;;7.40;99.90;;;;;;5134025;27;20183;-86
2022/11/30 00:36:10;;;;;;;38.70;18.35;;;7.40;99.90;;;;;;5141307;27;20572;-85
2022/11/30 00:38:40;;;;;;;48.35;22.30;;;7.40;99.90;;;;;;5145558;27;20704;-86
2022/11/30 00:41:08;;;;;;;60.55;19.98;;;7.40;99.90;;;;;;5126995;27;20197;-85
2022/11/30 00:43:36;;;;;;;45.42;19.85;;;7.40;99.90;;;;;;5145535;27;20554;-85
2022/11/30 00:46:05;;;;;;;43.80;20.95;;;7.40;99.90;;;;;;5146058;27;20301;-85
2022/11/30 00:48:33;;;;;;;38.60;19.60;;;7.30;99.90;;;;;;5125837;27;20194;-85
2022/11/30 00:51:01;;;;;;;39.00;17.65;;;7.30;99.90;;;;;;5122597;28;20199;-85
2022/11/30 00:53:29;;;;;;;41.00;20.48;;;7.40;99.90;;;;;;5106118;28;20199;-87
2022/11/30 00:56:00;;;;;;;36.60;18.38;;;7.40;99.90;;;;;;5122645;27;20185;-86
2022/11/30 00:58:28;;;;;;;40.30;19.58;;;7.40;99.90;;;;;;5124980;27;20194;-86
2022/11/30 01:00:56;;;;;;;46.65;19.90;;;7.40;99.90;;;;;;5109307;27;20194;-86
2022/11/30 01:03:24;;;;;;;37.22;18.75;;;7.40;99.90;;;;;;5142033;27;20672;-85
2022/11/30 01:05:52;;;;;;;39.38;18.42;;;7.40;99.90;;;;;;5124028;27;20197;-85
2022/11/30 01:08:20;;;;;;;41.47;18.58;;;7.40;99.90;;;;;;5128962;27;20283;-86
2022/11/30 01:10:52;;;;;;;46.88;20.05;;;7.30;99.90;;;;;;5089323;28;20277;-85
2022/11/30 01:13:22;;;;;;;40.95;19.70;;;7.40;99.90;;;;;;5104923;28;20261;-85
2022/11/30 01:15:50;;;;;;;41.75;17.92;;;7.30;99.90;;;;;;5102984;28;20262;-85
2022/11/30 01:18:18;;;;;;;36.22;18.25;;;7.30;99.90;;;;;;5104448;28;20282;-86
2022/11/30 01:20:46;;;;;;;36.58;17.85;;;7.20;99.90;;;;;;5085423;28;20263;-85
2022/11/30 01:23:14;;;;;;;39.47;18.73;;;7.30;99.90;;;;;;5087110;28;20187;-86
2022/11/30 01:25:42;;;;;;;37.58;19.27;;;7.30;99.90;;;;;;5121278;28;20254;-86
2022/11/30 01:28:10;;;;;;;32.65;17.35;;;7.30;99.90;;;;;;5132820;27;20273;-85
2022/11/30 01:30:40;;;;;;;47.97;19.10;;;7.30;99.90;;;;;;5123804;28;20227;-85
2022/11/30 01:33:09;;;;;;;43.28;18.40;;;7.30;99.90;;;;;;5124452;28;20209;-85
2022/11/30 01:35:37;;;;;;;38.45;18.33;;;7.30;99.90;;;;;;5140460;28;20269;-85
2022/11/30 01:38:05;;;;;;;35.35;17.00;;;7.40;99.90;;;;;;5148040;27;20194;-85
2022/11/30 01:40:33;;;;;;;40.25;18.88;;;7.30;99.90;;;;;;5144695;27;20219;-85
2022/11/30 01:43:01;;;;;;;36.08;16.58;;;7.30;99.90;;;;;;5158367;27;20307;-85
2022/11/30 01:45:29;;;;;;;40.30;17.90;;;7.30;99.90;;;;;;5131746;28;20582;-85
2022/11/30 01:47:59;;;;;;;44.22;17.05;;;7.30;99.90;;;;;;5142676;28;20217;-85
2022/11/30 01:50:30;;;;;;;37.70;18.00;;;7.30;99.90;;;;;;5107272;28;20262;-85
2022/11/30 01:52:59;;;;;;;36.13;17.73;;;7.30;99.90;;;;;;5123774;28;20185;-85
2022/11/30 01:55:30;;;;;;;37.40;17.40;;;7.30;99.90;;;;;;5124189;28;20209;-85
2022/11/30 01:58:03;;;;;;;37.95;17.65;;;7.20;99.90;;;;;;5123279;28;20186;-85
2022/11/30 02:00:32;;;;;;;44.10;19.23;;;7.20;99.90;;;;;;5106949;28;20190;-84
2022/11/30 02:03:07;;;;;;;37.08;17.15;;;7.20;99.90;;;;;;5104897;28;20258;-84
2022/11/30 02:05:38;;;;;;;34.90;15.70;;;7.20;99.90;;;;;;5139761;28;20237;-85
2022/11/30 02:08:07;;;;;;;37.38;17.98;;;7.20;99.90;;;;;;5140142;28;20320;-85
2022/11/30 02:10:38;;;;;;;39.72;17.77;;;7.20;99.90;;;;;;5121341;28;20530;-85
2022/11/30 02:13:28;;;;;;;36.45;18.52;;;7.30;99.90;;;;;;5121117;28;20186;-85
2022/11/30 02:16:05;;;;;;;39.90;17.95;;;7.30;99.90;;;;;;5121078;28;20209;-86
2022/11/30 02:18:43;;;;;;;39.15;17.10;;;7.30;99.90;;;;;;5122251;28;20608;-85
2022/11/30 02:21:17;;;;;;;40.75;18.70;;;7.30;99.90;;;;;;5124144;27;20651;-85
2022/11/30 02:24:08;;;;;;;41.70;19.30;;;7.30;99.90;;;;;;5143891;27;20190;-85
2022/11/30 02:26:51;;;;;;;52.45;18.80;;;7.30;99.90;;;;;;5143427;27;20193;-85
2022/11/30 02:29:24;;;;;;;43.42;19.08;;;7.30;99.90;;;;;;5124555;27;20190;-85
2022/11/30 02:31:58;;;;;;;42.10;17.67;;;7.30;99.90;;;;;;5124386;27;20247;-85
2022/11/30 02:34:29;;;;;;;46.95;19.00;;;7.30;99.90;;;;;;5142689;27;20179;-84
2022/11/30 02:36:59;;;;;;;39.22;18.67;;;7.20;99.90;;;;;;5125168;27;20193;-84
2022/11/30 02:39:27;;;;;;;53.13;20.38;;;7.30;99.90;;;;;;5142304;27;20209;-84
2022/11/30 02:41:58;;;;;;;48.33;19.00;;;7.30;99.90;;;;;;5146315;27;20565;-84
2022/11/30 02:44:28;;;;;;;46.60;18.58;;;7.30;99.90;;;;;;5145327;27;20554;-84
2022/11/30 02:47:18;;;;;;;48.63;18.02;;;7.30;99.90;;;;;;5160355;27;20214;-83
2022/11/30 02:49:51;;;;;;;45.65;18.95;;;7.30;99.90;;;;;;5124730;27;20193;-84
2022/11/30 02:52:24;;;;;;;48.83;20.20;;;7.30;99.90;;;;;;5144447;27;20186;-84
2022/11/30 02:54:52;;;;;;;42.28;20.42;;;7.30;99.90;;;;;;5127499;27;20272;-85
2022/11/30 02:57:20;;;;;;;50.95;21.40;;;7.20;99.90;;;;;;5135525;27;20196;-83
2022/11/30 02:59:50;;;;;;;45.85;21.17;;;7.30;99.90;;;;;;5133333;27;20278;-84
2022/11/30 03:02:18;;;;;;;55.17;20.80;;;7.30;99.90;;;;;;5138264;27;20197;-83
2022/11/30 03:04:46;;;;;;;45.17;22.10;;;7.30;99.90;;;;;;5107341;27;20202;-84
2022/11/30 03:07:14;;;;;;;50.92;20.38;;;7.20;99.90;;;;;;5132471;27;20225;-84
2022/11/30 03:09:42;;;;;;;46.92;21.95;;;7.30;99.90;;;;;;5163853;27;20203;-84
2022/11/30 03:12:10;;;;;;;56.35;21.45;;;7.30;99.90;;;;;;5133848;27;20198;-85
2022/11/30 03:14:38;;;;;;;40.22;19.98;;;7.30;99.90;;;;;;5124625;27;20212;-84
2022/11/30 03:17:08;;;;;;;56.38;21.10;;;7.30;99.90;;;;;;5127490;27;20202;-84
2022/11/30 03:19:36;;;;;;;45.22;21.65;;;7.30;99.90;;;;;;5143319;27;20197;-85
2022/11/30 03:22:04;;;;;;;47.47;22.10;;;7.30;99.90;;;;;;5143444;27;20228;-85
2022/11/30 03:24:33;;;;;;;51.90;22.65;;;7.30;99.90;;;;;;5141691;27;20567;-85
2022/11/30 03:27:01;;;;;;;50.28;21.17;;;7.20;99.90;;;;;;5121400;27;20272;-85
2022/11/30 03:29:29;;;;;;;47.08;21.65;;;7.20;99.90;;;;;;5155511;27;20197;-85
2022/11/30 03:31:57;;;;;;;53.70;22.05;;;7.30;99.90;;;;;;5145832;27;20201;-84
2022/11/30 03:34:27;;;;;;;49.28;22.60;;;7.20;99.90;;;;;;5141344;27;20228;-84
2022/11/30 03:36:56;;;;;;;50.92;22.80;;;7.20;99.90;;;;;;5129742;27;20649;-85
2022/11/30 03:39:24;;;;;;;47.35;20.35;;;7.30;99.90;;;;;;5129513;27;20193;-84
2022/11/30 03:41:52;;;;;;;52.20;22.38;;;7.30;99.90;;;;;;5142210;27;20209;-85
2022/11/30 03:44:21;;;;;;;50.88;21.40;;;7.30;99.90;;;;;;5148118;27;20275;-84
2022/11/30 03:46:49;;;;;;;58.85;22.50;;;7.30;99.90;;;;;;5162976;27;20230;-84
2022/11/30 03:49:17;;;;;;;51.67;22.40;;;7.30;99.90;;;;;;5150802;27;20218;-85
2022/11/30 03:51:47;;;;;;;52.20;22.42;;;7.20;99.90;;;;;;5133938;27;20656;-84
2022/11/30 03:54:15;;;;;;;56.45;21.80;;;7.20;99.90;;;;;;5139965;27;20269;-84
2022/11/30 03:56:43;;;;;;;52.55;24.45;;;7.20;99.90;;;;;;5139939;27;20205;-84
2022/11/30 03:59:11;;;;;;;57.15;23.40;;;7.30;99.90;;;;;;5139905;27;20202;-84
2022/11/30 04:01:40;;;;;;;53.55;23.02;;;7.30;99.90;;;;;;5126971;27;20193;-84
2022/11/30 04:04:08;;;;;;;47.55;23.60;;;7.30;99.90;;;;;;5118487;27;20218;-85
2022/11/30 04:06:36;;;;;;;54.03;24.20;;;7.30;99.90;;;;;;5102455;28;20233;-85
2022/11/30 04:09:06;;;;;;;50.55;24.67;;;7.30;99.90;;;;;;5136354;27;20730;-84
2022/11/30 04:11:34;;;;;;;56.53;22.55;;;7.30;99.90;;;;;;5114114;28;20293;-85
2022/11/30 04:14:03;;;;;;;52.35;23.17;;;7.30;99.90;;;;;;5102070;28;20199;-85
2022/11/30 04:16:31;;;;;;;50.95;22.63;;;7.30;99.90;;;;;;5121979;28;20213;-84
2022/11/30 04:18:59;;;;;;;64.00;25.63;;;7.30;99.90;;;;;;5121861;28;20198;-85
2022/11/30 04:21:27;;;;;;;55.90;23.00;;;7.30;99.90;;;;;;5111212;27;20222;-85
2022/11/30 04:23:55;;;;;;;46.78;22.50;;;7.30;99.90;;;;;;5123052;27;20288;-84
2022/11/30 04:26:24;;;;;;;49.33;23.33;;;7.30;99.90;;;;;;5120730;27;20216;-84
2022/11/30 04:28:52;;;;;;;54.60;23.83;;;7.30;99.90;;;;;;5140441;27;20296;-84
2022/11/30 04:31:20;;;;;;;51.03;22.50;;;7.30;99.90;;;;;;5122466;27;20198;-84
2022/11/30 04:33:52;;;;;;;56.40;23.63;;;7.30;99.90;;;;;;5122759;27;20194;-84
2022/11/30 04:36:20;;;;;;;57.30;23.05;;;7.20;99.90;;;;;;5139150;27;20698;-84
2022/11/30 04:38:48;;;;;;;54.47;22.77;;;7.30;99.90;;;;;;5104064;27;20197;-85
2022/11/30 04:41:16;;;;;;;57.58;23.17;;;7.30;99.90;;;;;;5138348;27;20202;-85
2022/11/30 04:43:46;;;;;;;71.60;25.75;;;7.30;99.90;;;;;;5137210;27;20653;-85
2022/11/30 04:46:13;;;;;;;55.45;23.02;;;7.30;99.90;;;;;;5121502;27;20201;-84
2022/11/30 04:48:42;;;;;;;55.75;24.48;;;7.20;99.90;;;;;;5120690;27;20210;-84
2022/11/30 04:51:09;;;;;;;56.83;23.38;;;7.20;99.90;;;;;;5126392;27;20204;-85
2022/11/30 04:53:38;;;;;;;56.63;23.50;;;7.20;99.90;;;;;;5147339;27;20217;-85
2022/11/30 04:56:07;;;;;;;56.92;22.88;;;7.30;99.90;;;;;;5138053;27;20196;-85
2022/11/30 04:58:37;;;;;;;55.35;24.63;;;7.20;99.90;;;;;;5105188;27;20735;-85
2022/11/30 05:01:07;;;;;;;74.55;25.42;;;7.20;99.90;;;;;;5138959;27;20198;-85
2022/11/30 05:03:35;;;;;;;57.75;21.35;;;7.20;99.90;;;;;;5149148;27;20197;-85
2022/11/30 05:06:03;;;;;;;58.58;23.85;;;7.20;99.90;;;;;;5143912;27;20564;-85
2022/11/30 05:08:31;;;;;;;60.17;23.10;;;7.20;99.90;;;;;;5119452;27;20222;-85
2022/11/30 05:10:59;;;;;;;61.53;23.95;;;7.20;99.90;;;;;;5125043;27;20194;-85
2022/11/30 05:13:27;;;;;;;55.00;21.88;;;7.20;99.90;;;;;;5138010;27;20198;-84
2022/11/30 05:15:55;;;;;;;60.78;24.33;;;7.20;99.90;;;;;;5125916;27;20194;-84
2022/11/30 05:18:25;;;;;;;55.47;23.55;;;7.20;99.90;;;;;;5137687;27;20197;-85
2022/11/30 05:20:53;;;;;;;63.35;24.88;;;7.20;99.90;;;;;;5119762;27;20222;-85
2022/11/30 05:23:22;;;;;;;61.08;23.42;;;7.20;99.90;;;;;;5139014;27;20198;-84
2022/11/30 05:25:50;;;;;;;70.15;25.20;;;7.20;99.90;;;;;;5138930;27;20197;-85
2022/11/30 05:28:18;;;;;;;61.38;24.95;;;7.20;99.90;;;;;;5139314;27;20225;-85
2022/11/30 05:30:46;;;;;;;60.90;25.05;;;7.20;99.90;;;;;;5140348;27;20205;-84
2022/11/30 05:33:14;;;;;;;54.80;23.85;;;7.20;99.90;;;;;;5122349;27;20606;-85
2022/11/30 05:35:44;;;;;;;62.70;25.15;;;7.20;99.90;;;;;;5121701;28;20653;-84
2022/11/30 05:38:12;;;;;;;62.30;25.67;;;7.20;99.90;;;;;;5104381;28;20272;-84
2022/11/30 05:40:40;;;;;;;64.78;24.48;;;7.20;99.90;;;;;;5121417;28;20209;-84
2022/11/30 05:43:08;;;;;;;61.72;25.40;;;7.20;99.90;;;;;;5121085;28;20197;-84
2022/11/30 05:45:35;;;;;;;67.78;24.58;;;7.20;99.90;;;;;;5120247;28;20205;-84
2022/11/30 05:48:04;;;;;;;67.82;24.67;;;7.10;99.90;;;;;;5119820;28;20197;-84
2022/11/30 05:50:33;;;;;;;62.28;25.00;;;7.20;99.90;;;;;;5140158;28;20182;-84
2022/11/30 05:53:03;;;;;;;63.55;23.92;;;7.10;99.90;;;;;;5139608;28;20206;-85
2022/11/30 05:55:31;;;;;;;64.80;25.52;;;7.20;99.90;;;;;;5142135;27;20228;-85
2022/11/30 05:57:59;;;;;;;61.92;24.35;;;7.20;99.90;;;;;;5142804;27;20205;-84
2022/11/30 06:00:27;;;;;;;57.90;25.42;;;7.20;99.90;;;;;;5143888;27;20469;-84
2022/11/30 06:02:56;;;;;;;64.30;27.33;;;7.20;99.90;;;;;;5125198;27;20201;-85
2022/11/30 06:05:27;;;;;;;59.55;23.50;;;7.20;99.90;;;;;;5125855;27;20292;-83
2022/11/30 06:07:58;;;;;;;60.90;25.17;;;7.10;99.90;;;;;;5117669;27;20217;-84
2022/11/30 06:10:28;;;;;;;62.30;26.15;;;7.20;99.90;;;;;;5111339;27;20277;-83
2022/11/30 06:12:56;;;;;;;72.00;26.63;;;7.20;99.90;;;;;;5142862;27;20691;-84
2022/11/30 06:15:24;;;;;;;70.55;27.25;;;7.20;99.90;;;;;;5151257;27;20190;-83
2022/11/30 06:17:54;;;;;;;72.40;26.52;;;7.20;99.90;;;;;;5143312;27;20285;-85
2022/11/30 06:20:22;;;;;;;65.15;25.13;;;7.20;99.90;;;;;;5158755;27;20181;-83
2022/11/30 06:22:50;;;;;;;65.53;26.70;;;7.20;99.90;;;;;;5119855;27;20194;-85
2022/11/30 06:25:18;;;;;;;57.00;23.95;;;7.20;99.90;;;;;;5156900;27;20193;-84
2022/11/30 06:27:47;;;;;;;63.78;25.63;;;7.20;99.90;;;;;;5136098;27;20197;-85
2022/11/30 06:30:16;;;;;;;67.15;27.58;;;7.20;99.90;;;;;;5152329;27;20217;-84
2022/11/30 06:32:45;;;;;;;69.90;26.30;;;7.20;99.90;;;;;;5163541;27;20290;-84
2022/11/30 06:35:13;;;;;;;73.45;28.58;;;7.20;99.90;;;;;;5139448;27;20210;-84
2022/11/30 06:37:41;;;;;;;85.97;31.73;;;7.30;99.90;;;;;;5122736;27;20761;-83
2022/11/30 06:40:11;;;;;;;67.07;29.02;;;7.30;99.90;;;;;;5140759;27;20193;-82
2022/11/30 06:42:40;;;;;;;74.05;28.65;;;7.30;99.90;;;;;;5116553;27;20189;-83
2022/11/30 06:45:10;;;;;;;76.28;26.52;;;7.30;99.90;;;;;;5158323;27;20212;-83
2022/11/30 06:47:39;;;;;;;63.40;25.83;;;7.20;99.90;;;;;;5124007;27;20191;-84
2022/11/30 06:50:08;;;;;;;62.85;26.70;;;7.20;99.90;;;;;;5106842;27;20228;-84
2022/11/30 06:52:36;;;;;;;70.25;26.55;;;7.20;99.90;;;;;;5123089;27;20205;-81
2022/11/30 06:55:05;;;;;;;67.03;26.33;;;7.20;99.90;;;;;;5123172;27;20197;-84
2022/11/30 06:57:33;;;;;;;73.80;27.88;;;7.30;99.90;;;;;;5107436;27;20209;-83
2022/11/30 07:00:01;;;;;;;69.47;26.52;;;7.30;99.90;;;;;;5142056;27;20561;-83
2022/11/30 07:02:31;;;;;;;81.72;26.95;;;7.20;99.90;;;;;;5106409;28;20471;-83
2022/11/30 07:04:59;;;;;;;64.93;24.80;;;7.30;99.90;;;;;;5123366;28;20206;-84
2022/11/30 07:07:28;;;;;;;68.88;27.05;;;7.30;99.90;;;;;;5102756;28;20215;-84
2022/11/30 07:09:56;;;;;;;72.22;25.90;;;7.20;99.90;;;;;;5102797;28;20740;-84
2022/11/30 07:12:25;;;;;;;69.10;27.50;;;7.30;99.90;;;;;;5126160;27;20198;-83
2022/11/30 07:14:55;;;;;;;69.13;26.48;;;7.30;99.90;;;;;;5155277;27;20212;-86
2022/11/30 07:17:23;;;;;;;69.25;26.38;;;7.30;99.90;;;;;;5144781;27;20246;-83
2022/11/30 07:19:52;;;;;;;75.80;28.33;;;7.20;99.90;;;;;;5140938;27;20311;-83
2022/11/30 07:22:20;;;;;;;81.20;27.80;;;7.20;99.90;;;;;;5142088;27;20233;-85
2022/11/30 07:27:33;;;;;;;76.70;26.58;;;7.20;99.90;;;;;;5101724;27;20201;-83
2022/11/30 07:30:01;;;;;;;83.13;26.58;;;7.20;99.90;;;;;;5122561;27;20197;-83
2022/11/30 07:32:29;;;;;;;84.45;29.88;;;7.20;99.90;;;;;;5128750;27;20182;-83
2022/11/30 07:34:58;;;;;;;84.50;28.73;;;7.20;99.90;;;;;;5125380;27;20201;-84
2022/11/30 07:37:26;;;;;;;88.20;28.40;;;7.20;99.90;;;;;;5148834;27;20197;-85
2022/11/30 07:39:54;;;;;;;85.93;28.08;;;7.20;99.90;;;;;;5110134;27;20203;-84
2022/11/30 07:42:22;;;;;;;77.72;28.27;;;7.20;99.90;;;;;;5156177;27;20194;-83
2022/11/30 07:44:51;;;;;;;77.35;27.58;;;7.20;99.90;;;;;;5129604;27;20216;-82
2022/11/30 07:47:19;;;;;;;82.85;25.83;;;7.20;99.90;;;;;;5140641;27;20209;-82
2022/11/30 07:49:47;;;;;;;93.32;30.33;;;7.20;99.90;;;;;;5099288;28;20222;-83
2022/11/30 07:52:17;;;;;;;93.43;28.02;;;7.30;99.90;;;;;;5104600;27;20287;-83
2022/11/30 07:54:45;;;;;;;82.13;30.35;;;7.30;99.90;;;;;;5104567;27;20277;-83
2022/11/30 07:57:13;;;;;;;90.22;30.35;;;7.30;99.90;;;;;;5122991;27;20202;-82
2022/11/30 07:59:41;;;;;;;82.70;28.73;;;7.30;99.90;;;;;;5141842;27;20217;-82
2022/11/30 08:02:11;;;;;;;95.47;31.50;;;7.30;99.90;;;;;;5123544;27;20196;-83
2022/11/30 08:04:39;;;;;;;79.35;28.65;;;7.30;99.90;;;;;;5122317;27;20529;-83
2022/11/30 08:07:07;;;;;;;74.25;27.98;;;7.40;99.90;;;;;;5139467;27;20583;-84
2022/11/30 08:09:36;;;;;;;86.40;30.85;;;7.40;99.90;;;;;;5122633;27;20212;-83
2022/11/30 08:12:05;;;;;;;81.53;29.65;;;7.50;99.90;;;;;;5154904;27;20274;-84
2022/11/30 08:14:33;;;;;;;73.28;29.05;;;7.40;99.90;;;;;;5157300;27;20186;-83
2022/11/30 08:17:01;;;;;;;92.32;29.25;;;7.40;99.90;;;;;;5138179;27;20232;-83
2022/11/30 08:19:29;;;;;;;71.97;27.65;;;7.40;99.90;;;;;;5147311;27;20276;-83
2022/11/30 08:21:57;;;;;;;73.70;27.30;;;7.40;99.90;;;;;;5127079;27;20221;-84
2022/11/30 08:24:25;;;;;;;79.05;29.13;;;7.40;99.90;;;;;;5161708;27;20205;-83
2022/11/30 08:26:54;;;;;;;69.03;25.13;;;7.40;99.90;;;;;;5135181;27;20668;-84
2022/11/30 08:29:22;;;;;;;82.40;27.17;;;7.50;99.90;;;;;;5136038;27;20201;-84
2022/11/30 08:31:51;;;;;;;77.03;28.10;;;7.50;99.90;;;;;;5142134;27;20201;-84
2022/11/30 08:34:18;;;;;;;68.57;27.25;;;7.60;99.90;;;;;;5127932;27;20206;-84
2022/11/30 08:36:46;;;;;;;71.97;27.33;;;7.50;99.90;;;;;;5090186;27;20201;-85
2022/11/30 08:39:14;;;;;;;87.10;34.55;;;7.50;99.90;;;;;;5139765;27;20204;-84
2022/11/30 08:41:42;;;;;;;75.10;29.33;;;7.60;99.90;;;;;;5115879;27;20189;-84
2022/11/30 08:44:12;;;;;;;78.55;28.02;;;7.60;99.90;;;;;;5142695;27;20199;-84
2022/11/30 08:46:40;;;;;;;58.42;23.50;;;7.70;99.90;;;;;;5111371;27;20549;-84
2022/11/30 08:49:08;;;;;;;66.85;25.60;;;7.70;99.90;;;;;;5140364;27;20204;-84
2022/11/30 08:51:36;;;;;;;66.43;24.58;;;7.70;99.90;;;;;;5130210;27;20570;-82
2022/11/30 08:54:04;;;;;;;95.95;40.20;;;7.70;99.90;;;;;;5130173;27;20223;-82
2022/11/30 08:56:32;;;;;;;74.75;30.27;;;7.70;99.90;;;;;;5155920;27;20186;-82
2022/11/30 08:59:00;;;;;;;60.45;24.60;;;7.70;99.90;;;;;;5104088;28;20239;-82
2022/11/30 09:01:30;;;;;;;55.53;24.17;;;7.70;99.90;;;;;;5118163;27;20547;-82
2022/11/30 09:03:58;;;;;;;61.58;24.35;;;7.70;99.90;;;;;;5135403;27;20193;-82
2022/11/30 09:06:28;;;;;;;69.72;24.35;;;7.70;99.90;;;;;;5153902;27;20258;-82
2022/11/30 09:08:58;;;;;;;72.72;27.08;;;7.70;99.90;;;;;;5121791;27;20305;-82
2022/11/30 09:11:28;;;;;;;53.17;23.15;;;7.70;99.90;;;;;;5136334;27;20217;-83
2022/11/30 09:13:57;;;;;;;68.32;27.58;;;7.60;99.90;;;;;;5123478;27;20215;-82
2022/11/30 09:16:26;;;;;;;57.17;22.02;;;7.70;99.90;;;;;;5113990;28;20199;-82
2022/11/30 09:18:55;;;;;;;64.70;23.77;;;7.70;99.90;;;;;;5139358;27;20633;-82
2022/11/30 09:21:24;;;;;;;51.85;23.52;;;7.70;99.90;;;;;;5138282;27;20214;-82
2022/11/30 09:23:55;;;;;;;66.15;25.58;;;7.70;99.90;;;;;;5120360;27;20212;-82
2022/11/30 09:26:24;;;;;;;61.67;23.60;;;7.70;99.90;;;;;;5128033;27;20201;-82
2022/11/30 09:28:54;;;;;;;58.40;22.45;;;7.80;99.90;;;;;;5103232;27;20763;-82
2022/11/30 09:31:23;;;;;;;53.30;22.67;;;7.70;99.90;;;;;;5136398;27;20200;-82
2022/11/30 09:33:52;;;;;;;42.28;19.42;;;7.70;99.90;;;;;;5128899;27;20202;-81
2022/11/30 09:36:22;;;;;;;57.78;22.90;;;7.70;99.90;;;;;;5129830;27;20193;-81
2022/11/30 09:38:50;;;;;;;55.85;24.83;;;7.70;99.90;;;;;;5151582;27;20213;-82
2022/11/30 09:41:36;;;;;;;46.53;21.35;;;7.80;99.90;;;;;;5120171;28;20581;-81
2022/11/30 09:44:10;;;;;;;49.30;22.45;;;7.80;99.90;;;;;;5140551;27;20250;-81
2022/11/30 09:46:41;;;;;;;52.10;22.90;;;7.70;99.90;;;;;;5133018;27;20177;-82
2022/11/30 09:49:17;;;;;;;37.97;20.48;;;7.80;99.90;;;;;;5153517;27;20184;-85
2022/11/30 09:51:48;;;;;;;51.00;21.75;;;7.80;99.90;;;;;;5119896;28;20244;-84
2022/11/30 09:54:19;;;;;;;48.55;21.48;;;7.80;99.90;;;;;;5126306;27;20253;-84
2022/11/30 09:56:48;;;;;;;48.20;22.83;;;7.90;99.90;;;;;;5129923;27;20192;-84
2022/11/30 09:59:20;;;;;;;45.65;21.90;;;7.90;99.90;;;;;;5135212;28;20212;-84
2022/11/30 10:01:48;;;;;;;39.47;20.77;;;7.90;99.90;;;;;;5133715;27;20521;-85
2022/11/30 10:04:22;;;;;;;53.13;21.63;;;7.90;99.90;;;;;;5122522;28;20205;-85
2022/11/30 10:07:02;;;;;;;38.30;19.83;;;7.90;99.90;;;;;;5138409;27;20219;-83
2022/11/30 10:09:46;;;;;;;35.38;20.83;;;7.90;99.90;;;;;;5141204;28;20190;-83
2022/11/30 10:12:21;;;;;;;41.30;19.45;;;8.00;99.90;;;;;;5121794;28;20220;-83
2022/11/30 10:15:07;;;;;;;43.65;19.13;;;7.90;99.90;;;;;;5122404;28;20186;-83
2022/11/30 10:17:40;;;;;;;31.00;20.08;;;7.90;99.90;;;;;;5122283;28;20201;-83
2022/11/30 10:20:28;;;;;;;37.53;20.05;;;7.90;99.90;;;;;;5145947;27;20197;-84
2022/11/30 10:23:14;;;;;;;29.73;17.85;;;7.90;99.90;;;;;;5144461;27;20388;-83
2022/11/30 10:25:52;;;;;;;31.08;17.52;;;7.90;99.90;;;;;;5142066;27;20268;-84
2022/11/30 10:28:28;;;;;;;21.73;16.60;;;7.90;99.90;;;;;;5143586;27;20185;-84
2022/11/30 10:31:00;;;;;;;26.58;18.42;;;7.80;99.90;;;;;;5133817;28;20221;-83
2022/11/30 10:33:38;;;;;;;21.75;15.85;;;7.90;99.90;;;;;;5102568;28;20178;-84
2022/11/30 10:36:12;;;;;;;23.50;17.13;;;7.90;99.90;;;;;;5103317;28;20199;-84
2022/11/30 10:38:45;;;;;;;25.23;15.93;;;7.80;99.90;;;;;;5102860;28;20187;-84
2022/11/30 10:41:18;;;;;;;28.98;16.50;;;7.90;99.90;;;;;;5132468;27;20596;-84
2022/11/30 10:43:51;;;;;;;24.25;16.38;;;7.90;99.90;;;;;;5143295;27;20610;-85
2022/11/30 10:46:21;;;;;;;20.40;14.40;;;8.00;99.90;;;;;;5155034;27;20189;-83
2022/11/30 10:48:56;;;;;;;23.75;15.77;;;7.90;99.90;;;;;;5109739;28;20198;-83
2022/11/30 10:51:25;;;;;;;20.05;14.48;;;7.90;99.90;;;;;;5124016;28;20209;-83
2022/11/30 10:53:54;;;;;;;18.23;14.63;;;8.00;99.90;;;;;;5104841;28;20195;-85
2022/11/30 10:56:22;;;;;;;21.80;16.00;;;8.10;99.90;;;;;;5104824;28;20777;-85
2022/11/30 10:58:56;;;;;;;16.73;13.65;;;8.10;99.90;;;;;;5123377;28;20210;-85
2022/11/30 11:01:34;;;;;;;20.88;15.25;;;8.00;99.90;;;;;;5125584;27;20512;-86
2022/11/30 11:04:13;;;;;;;18.40;13.65;;;8.00;99.90;;;;;;5115656;27;20185;-83
2022/11/30 11:06:45;;;;;;;21.33;15.15;;;8.00;99.90;;;;;;5157934;27;20205;-84
2022/11/30 11:09:38;;;;;;;19.50;14.05;;;8.00;99.90;;;;;;5123163;27;20613;-83
2022/11/30 11:12:13;;;;;;;19.35;13.65;;;8.10;99.90;;;;;;5111881;27;20233;-84
2022/11/30 11:14:42;;;;;;;20.33;13.57;;;8.00;99.90;;;;;;5110670;27;20188;-84
2022/11/30 11:17:22;;;;;;;19.83;13.82;;;8.10;99.90;;;;;;5160713;27;20209;-84
2022/11/30 11:19:51;;;;;;;16.88;13.13;;;8.10;99.90;;;;;;5150537;27;20194;-84
2022/11/30 11:22:21;;;;;;;23.63;13.82;;;8.10;99.90;;;;;;5159391;27;20323;-85
2022/11/30 11:24:54;;;;;;;19.63;14.82;;;8.10;99.90;;;;;;5113909;28;20183;-84
2022/11/30 11:27:29;;;;;;;22.88;14.73;;;8.20;99.90;;;;;;5119292;27;20245;-85
2022/11/30 11:30:03;;;;;;;24.35;15.55;;;8.40;99.90;;;;;;5105882;27;20185;-84
2022/11/30 11:32:33;;;;;;;19.77;14.13;;;8.50;99.90;;;;;;5130821;27;20209;-83
2022/11/30 11:35:01;;;;;;;17.27;13.50;;;8.50;99.90;;;;;;5144507;27;20193;-83
2022/11/30 11:37:32;;;;;;;19.33;13.77;;;8.50;99.90;;;;;;5137769;27;20197;-84
2022/11/30 11:40:05;;;;;;;17.67;11.82;;;8.60;99.90;;;;;;5145080;27;20269;-84
2022/11/30 11:42:37;;;;;;;16.52;13.02;;;8.60;99.90;;;;;;5157710;27;20178;-84
2022/11/30 11:45:15;;;;;;;21.23;12.32;;;8.50;99.90;;;;;;5126912;27;20189;-84
2022/11/30 11:47:44;;;;;;;17.75;13.85;;;8.50;99.90;;;;;;5130850;27;20665;-84
2022/11/30 11:50:26;;;;;;;16.25;12.85;;;8.50;99.90;;;;;;5114485;27;20201;-83
2022/11/30 11:53:21;;;;;;;16.48;12.82;;;8.60;99.90;;;;;;5118817;27;20212;-83
2022/11/30 11:55:56;;;;;;;18.52;14.45;;;8.70;99.90;;;;;;5127551;27;20181;-83
2022/11/30 11:58:33;;;;;;;14.80;11.85;;;8.70;99.90;;;;;;5124605;27;20201;-84
2022/11/30 12:01:05;;;;;;;17.00;13.80;;;8.70;99.90;;;;;;5109912;27;20273;-84
2022/11/30 12:03:41;;;;;;;18.35;13.55;;;8.70;99.90;;;;;;5140400;27;20190;-84
2022/11/30 12:06:13;;;;;;;15.70;13.20;;;8.70;99.90;;;;;;5138970;27;20194;-84
2022/11/30 12:08:47;;;;;;;18.02;14.23;;;8.80;99.90;;;;;;5129565;27;20440;-83
2022/11/30 12:11:28;;;;;;;16.27;13.02;;;8.80;99.90;;;;;;5147268;27;20684;-83
2022/11/30 12:13:56;;;;;;;17.25;12.68;;;8.80;99.90;;;;;;5150620;27;20186;-83
2022/11/30 12:16:37;;;;;;;18.00;13.73;;;8.80;99.90;;;;;;5142308;27;20193;-83
2022/11/30 12:19:13;;;;;;;19.85;13.40;;;8.80;99.90;;;;;;5123594;27;20191;-83
2022/11/30 12:21:53;;;;;;;20.20;13.35;;;8.80;99.90;;;;;;5129903;27;20245;-83
2022/11/30 12:24:45;;;;;;;17.88;13.32;;;8.70;99.90;;;;;;5113102;27;20241;-83
2022/11/30 12:27:22;;;;;;;19.15;13.63;;;8.70;99.90;;;;;;5122173;27;20192;-83
2022/11/30 12:30:01;;;;;;;20.83;13.90;;;8.80;99.90;;;;;;5104922;27;20193;-82
2022/11/30 12:32:42;;;;;;;22.48;13.80;;;8.80;99.90;;;;;;5147512;27;20213;-82
2022/11/30 12:35:29;;;;;;;22.92;16.10;;;8.90;99.90;;;;;;5110326;27;20200;-83
2022/11/30 12:38:05;;;;;;;20.40;15.13;;;8.80;99.90;;;;;;5145087;27;20270;-84
2022/11/30 12:40:46;;;;;;;21.10;15.65;;;8.90;99.90;;;;;;5148393;27;20194;-83
2022/11/30 12:43:22;;;;;;;17.63;13.98;;;8.90;99.90;;;;;;5130110;27;20649;-84
2022/11/30 12:45:53;;;;;;;19.85;14.00;;;8.80;99.90;;;;;;5144283;27;20192;-85
2022/11/30 12:48:33;;;;;;;18.25;13.98;;;8.80;99.90;;;;;;5141026;27;20194;-85
2022/11/30 12:51:11;;;;;;;19.98;14.00;;;8.80;99.90;;;;;;5108933;28;20633;-84
2022/11/30 12:53:47;;;;;;;21.40;16.25;;;8.80;99.90;;;;;;5104456;27;20234;-84
2022/11/30 12:56:29;;;;;;;22.80;14.30;;;8.90;99.90;;;;;;5141878;27;20253;-84